Time;durP1;ratioP1;P1;durP2;ratioP2;P2;SDS_P1;SDS_P2;PMS_P1;PMS_P2;Temp;Humidity;BMP_temperature;BMP_pressure;BME280_temperature;BME280_humidity;BME280_pressure;Samples;Min_cycle;Max_cycle;Signal;HPM_P1;HPM_P2
2021/06/16 00:02:22;;;;;;;15.05;8.85;;;;;;;;;;757793;183;919541;-71
2021/06/16 00:04:48;;;;;;;16.33;8.80;;;;;;;;;;765277;183;918453;-71
2021/06/16 00:07:14;;;;;;;10.57;7.72;;;;;;;;;;760301;182;920073;-71
2021/06/16 00:09:40;;;;;;;17.87;9.37;;;;;;;;;;761339;183;920299;-71
2021/06/16 00:12:06;;;;;;;8.67;7.20;;;;;;;;;;756799;182;920990;-71
2021/06/16 00:14:32;;;;;;;15.77;8.27;;;;;;;;;;765577;183;919174;-71
2021/06/16 00:16:57;;;;;;;13.57;8.30;;;;;;;;;;761506;182;919712;-71
2021/06/16 00:19:23;;;;;;;10.95;8.13;;;;;;;;;;755969;183;919604;-71
2021/06/16 00:21:49;;;;;;;14.10;8.63;;;;;;;;;;767330;182;915493;-71
2021/06/16 00:24:19;;;;;;;10.50;7.43;;;;;;;;;;758814;183;920756;-72
2021/06/16 00:26:42;;;;;;;12.77;7.50;;;;;;;;;;753374;184;918687;-72
2021/06/16 00:29:07;;;;;;;14.40;9.00;;;;;;;;;;754951;186;917453;-71
2021/06/16 00:31:33;;;;;;;13.60;7.70;;;;;;;;;;761444;183;869722;-71
2021/06/16 00:33:59;;;;;;;12.00;7.47;;;;;;;;;;757604;182;1022771;-71
2021/06/16 00:36:25;;;;;;;15.17;8.70;;;;;;;;;;758900;184;919681;-71
2021/06/16 00:38:51;;;;;;;12.77;8.03;;;;;;;;;;759374;183;920433;-71
2021/06/16 00:41:17;;;;;;;10.20;7.93;;;;;;;;;;761386;180;920001;-71
2021/06/16 00:43:42;;;;;;;12.90;6.60;;;;;;;;;;761913;183;920165;-71
2021/06/16 00:46:08;;;;;;;12.37;7.83;;;;;;;;;;767620;182;919667;-71
2021/06/16 00:48:34;;;;;;;18.33;7.00;;;;;;;;;;762188;182;924008;-71
2021/06/16 00:51:00;;;;;;;18.93;8.10;;;;;;;;;;756211;183;1017278;-71
2021/06/16 00:53:26;;;;;;;16.00;8.67;;;;;;;;;;759658;184;919559;-71
2021/06/16 00:55:52;;;;;;;15.97;8.10;;;;;;;;;;760503;182;918336;-71
2021/06/16 00:58:18;;;;;;;23.60;9.00;;;;;;;;;;760238;182;919303;-71
2021/06/16 01:00:59;;;;;;;17.58;7.70;;;;;;;;;;764139;182;920376;-71
2021/06/16 01:03:26;;;;;;;14.77;7.50;;;;;;;;;;769000;183;919341;-71
2021/06/16 01:05:53;;;;;;;14.93;8.37;;;;;;;;;;755701;182;919767;-71
2021/06/16 01:08:22;;;;;;;16.13;8.10;;;;;;;;;;762714;183;630139;-71
2021/06/16 01:10:48;;;;;;;14.10;7.30;;;;;;;;;;756964;184;918882;-69
2021/06/16 01:13:20;;;;;;;22.80;7.90;;;;;;;;;;768191;182;918387;-70
2021/06/16 01:15:46;;;;;;;13.47;6.20;;;;;;;;;;758788;183;919181;-70
2021/06/16 01:18:11;;;;;;;17.60;7.60;;;;;;;;;;760599;183;918342;-71
2021/06/16 01:20:37;;;;;;;16.30;6.90;;;;;;;;;;754879;184;919954;-70
2021/06/16 01:23:18;;;;;;;14.93;8.00;;;;;;;;;;752774;186;919453;-71
2021/06/16 01:25:46;;;;;;;17.53;8.53;;;;;;;;;;767612;183;921448;-70
2021/06/16 01:28:12;;;;;;;19.97;8.17;;;;;;;;;;758734;183;1029859;-71
2021/06/16 01:30:38;;;;;;;11.60;9.10;;;;;;;;;;756898;183;918985;-70
2021/06/16 01:33:05;;;;;;;10.47;7.30;;;;;;;;;;766562;183;919147;-70
2021/06/16 01:35:31;;;;;;;13.80;7.70;;;;;;;;;;756824;182;919656;-71
2021/06/16 01:37:57;;;;;;;19.65;8.23;;;;;;;;;;760108;182;919444;-70
2021/06/16 01:40:23;;;;;;;21.00;7.87;;;;;;;;;;765553;183;919761;-71
2021/06/16 01:42:49;;;;;;;13.07;7.80;;;;;;;;;;754623;184;919608;-70
2021/06/16 01:45:14;;;;;;;22.57;7.03;;;;;;;;;;754905;184;918966;-70
2021/06/16 01:47:40;;;;;;;17.43;7.17;;;;;;;;;;756699;183;919445;-70
2021/06/16 01:50:06;;;;;;;15.23;6.80;;;;;;;;;;753242;184;919457;-71
2021/06/16 01:52:32;;;;;;;15.20;7.50;;;;;;;;;;758413;181;919842;-70
2021/06/16 01:54:58;;;;;;;11.02;7.30;;;;;;;;;;759697;182;918966;-71
2021/06/16 01:57:24;;;;;;;16.33;6.93;;;;;;;;;;764629;182;919239;-70
2021/06/16 01:59:50;;;;;;;16.77;7.90;;;;;;;;;;760778;182;921395;-71
2021/06/16 02:02:15;;;;;;;15.77;8.43;;;;;;;;;;761549;182;919430;-71
2021/06/16 02:04:41;;;;;;;12.90;8.03;;;;;;;;;;765659;183;921080;-70
2021/06/16 02:07:07;;;;;;;16.53;8.07;;;;;;;;;;753665;183;918821;-71
2021/06/16 02:09:33;;;;;;;15.23;8.43;;;;;;;;;;759528;183;921821;-70
2021/06/16 02:12:00;;;;;;;17.30;8.57;;;;;;;;;;765230;183;920527;-70
2021/06/16 02:14:25;;;;;;;16.00;7.40;;;;;;;;;;758476;182;916942;-70
2021/06/16 02:16:53;;;;;;;20.40;7.03;;;;;;;;;;758568;183;919841;-70
2021/06/16 02:19:20;;;;;;;12.27;6.77;;;;;;;;;;758544;183;919823;-70
2021/06/16 02:21:46;;;;;;;15.03;6.63;;;;;;;;;;765566;183;918802;-70
2021/06/16 02:24:12;;;;;;;22.17;8.03;;;;;;;;;;756299;183;919725;-70
2021/06/16 02:26:37;;;;;;;12.30;7.07;;;;;;;;;;757202;183;918782;-69
2021/06/16 02:29:04;;;;;;;13.97;6.97;;;;;;;;;;764987;182;918287;-70
2021/06/16 02:31:30;;;;;;;25.10;8.30;;;;;;;;;;757186;183;919056;-70
2021/06/16 02:33:56;;;;;;;23.43;8.50;;;;;;;;;;761118;182;918029;-70
2021/06/16 02:36:22;;;;;;;15.20;7.40;;;;;;;;;;761920;182;918570;-69
2021/06/16 02:38:47;;;;;;;19.10;7.30;;;;;;;;;;759404;182;919582;-70
2021/06/16 02:41:13;;;;;;;14.10;7.70;;;;;;;;;;758274;182;1017282;-70
2021/06/16 02:43:39;;;;;;;23.08;7.80;;;;;;;;;;757785;184;919467;-70
2021/06/16 02:46:05;;;;;;;16.10;8.63;;;;;;;;;;762626;182;918205;-70
2021/06/16 02:48:31;;;;;;;13.40;7.10;;;;;;;;;;759016;182;919179;-70
2021/06/16 02:50:57;;;;;;;12.87;7.30;;;;;;;;;;759306;182;918408;-70
2021/06/16 02:53:22;;;;;;;12.43;7.50;;;;;;;;;;765600;183;1019027;-70
2021/06/16 02:55:48;;;;;;;13.43;8.07;;;;;;;;;;757997;183;918557;-70
2021/06/16 02:58:14;;;;;;;22.50;9.33;;;;;;;;;;758681;183;918301;-70
2021/06/16 03:00:40;;;;;;;12.47;8.97;;;;;;;;;;767121;182;918837;-69
2021/06/16 03:03:06;;;;;;;12.50;8.43;;;;;;;;;;761350;182;919538;-70
2021/06/16 03:05:32;;;;;;;11.60;8.37;;;;;;;;;;762056;182;919182;-70
2021/06/16 03:07:57;;;;;;;11.20;9.33;;;;;;;;;;761252;182;920288;-70
2021/06/16 03:10:23;;;;;;;12.10;8.95;;;;;;;;;;766680;182;910941;-70
2021/06/16 03:12:49;;;;;;;12.73;9.00;;;;;;;;;;759746;182;919666;-69
2021/06/16 03:15:15;;;;;;;9.10;7.93;;;;;;;;;;756894;183;919210;-70
2021/06/16 03:17:41;;;;;;;11.63;7.83;;;;;;;;;;764467;183;1432136;-70
2021/06/16 03:20:08;;;;;;;10.50;8.40;;;;;;;;;;758491;183;918952;-70
2021/06/16 03:22:33;;;;;;;7.80;7.00;;;;;;;;;;756147;183;921629;-70
2021/06/16 03:25:00;;;;;;;10.00;6.80;;;;;;;;;;763869;183;917389;-70
2021/06/16 03:27:25;;;;;;;20.63;6.77;;;;;;;;;;759479;182;919452;-70
2021/06/16 03:29:51;;;;;;;14.48;7.95;;;;;;;;;;759936;182;920233;-70
2021/06/16 03:32:17;;;;;;;15.23;9.13;;;;;;;;;;759423;182;919437;-69
2021/06/16 03:34:43;;;;;;;16.60;10.20;;;;;;;;;;766948;183;918656;-71
2021/06/16 03:37:08;;;;;;;16.43;9.83;;;;;;;;;;760557;182;917892;-69
2021/06/16 03:39:34;;;;;;;12.47;9.67;;;;;;;;;;754335;185;919157;-69
2021/06/16 03:42:00;;;;;;;18.02;11.35;;;;;;;;;;760490;184;919437;-69
2021/06/16 03:44:26;;;;;;;16.73;10.47;;;;;;;;;;759616;183;919217;-70
2021/06/16 03:46:52;;;;;;;14.17;9.50;;;;;;;;;;763895;182;919010;-70
2021/06/16 03:49:18;;;;;;;15.33;9.80;;;;;;;;;;766139;183;919378;-69
2021/06/16 03:51:44;;;;;;;14.07;11.13;;;;;;;;;;760159;182;918406;-69
2021/06/16 03:54:11;;;;;;;14.98;10.38;;;;;;;;;;758166;183;919328;-70
2021/06/16 03:56:38;;;;;;;15.80;11.17;;;;;;;;;;756960;183;919332;-69
2021/06/16 03:59:04;;;;;;;17.30;10.93;;;;;;;;;;758963;183;923141;-70
2021/06/16 04:01:30;;;;;;;16.73;10.10;;;;;;;;;;759649;183;918872;-70
2021/06/16 04:03:55;;;;;;;17.13;10.87;;;;;;;;;;756170;183;919855;-70
2021/06/16 04:06:21;;;;;;;15.67;10.57;;;;;;;;;;766208;182;917786;-70
2021/06/16 04:08:48;;;;;;;19.43;11.53;;;;;;;;;;753677;184;920191;-70
2021/06/16 04:11:14;;;;;;;16.10;10.60;;;;;;;;;;754207;184;919470;-71
2021/06/16 04:13:40;;;;;;;15.50;11.27;;;;;;;;;;757652;184;917569;-70
2021/06/16 04:16:06;;;;;;;18.47;11.70;;;;;;;;;;746094;186;920652;-71
2021/06/16 04:18:32;;;;;;;20.40;11.53;;;;;;;;;;748683;186;915771;-70
2021/06/16 04:20:57;;;;;;;18.80;11.83;;;;;;;;;;761075;182;915261;-70
2021/06/16 04:23:23;;;;;;;13.47;9.57;;;;;;;;;;763111;183;915492;-70
2021/06/16 04:25:49;;;;;;;14.30;11.00;;;;;;;;;;758520;183;1121044;-70
2021/06/16 04:28:15;;;;;;;21.00;11.10;;;;;;;;;;753079;184;915286;-70
2021/06/16 04:30:41;;;;;;;18.60;9.90;;;;;;;;;;757824;184;919485;-70
2021/06/16 04:33:07;;;;;;;17.30;10.80;;;;;;;;;;759095;183;919542;-70
2021/06/16 04:35:33;;;;;;;22.93;10.33;;;;;;;;;;760705;182;920746;-71
2021/06/16 04:37:59;;;;;;;15.87;11.03;;;;;;;;;;765502;182;882872;-70
2021/06/16 04:40:25;;;;;;;17.27;10.98;;;;;;;;;;760164;182;919487;-69
2021/06/16 04:42:50;;;;;;;13.63;10.03;;;;;;;;;;758435;182;919315;-71
2021/06/16 04:45:17;;;;;;;14.90;10.48;;;;;;;;;;763951;182;919488;-69
2021/06/16 04:47:43;;;;;;;13.90;10.80;;;;;;;;;;759305;183;932872;-71
2021/06/16 04:50:09;;;;;;;12.33;10.03;;;;;;;;;;756877;183;918893;-70
2021/06/16 04:52:35;;;;;;;16.10;10.63;;;;;;;;;;765342;183;623141;-71
2021/06/16 04:55:01;;;;;;;18.63;10.53;;;;;;;;;;770569;183;626599;-71
2021/06/16 04:57:27;;;;;;;13.43;11.10;;;;;;;;;;765633;183;766326;-71
2021/06/16 04:59:53;;;;;;;13.13;10.57;;;;;;;;;;759088;183;621896;-71
2021/06/16 05:02:18;;;;;;;13.30;10.73;;;;;;;;;;767201;183;685827;-71
2021/06/16 05:04:44;;;;;;;20.53;11.77;;;;;;;;;;755420;183;918375;-71
2021/06/16 05:07:10;;;;;;;17.93;11.47;;;;;;;;;;757081;183;922821;-70
2021/06/16 05:09:36;;;;;;;15.73;10.20;;;;;;;;;;766028;182;919930;-70
2021/06/16 05:12:02;;;;;;;12.97;10.03;;;;;;;;;;758996;183;919829;-72
2021/06/16 05:14:28;;;;;;;15.45;10.73;;;;;;;;;;762369;182;919404;-72
2021/06/16 05:16:54;;;;;;;13.63;9.83;;;;;;;;;;765553;183;617684;-72
2021/06/16 05:19:21;;;;;;;18.33;10.90;;;;;;;;;;769472;183;863054;-73
2021/06/16 05:21:45;;;;;;;14.17;9.27;;;;;;;;;;761774;182;1021677;-72
2021/06/16 05:24:11;;;;;;;18.87;9.33;;;;;;;;;;757819;184;918340;-72
2021/06/16 05:26:37;;;;;;;14.70;8.93;;;;;;;;;;760539;184;923754;-72
2021/06/16 05:29:03;;;;;;;12.90;8.90;;;;;;;;;;760323;182;1020633;-71
2021/06/16 05:31:29;;;;;;;12.90;8.23;;;;;;;;;;761331;182;921401;-72
2021/06/16 05:33:54;;;;;;;15.83;8.73;;;;;;;;;;766094;182;919725;-72
2021/06/16 05:36:20;;;;;;;16.17;9.87;;;;;;;;;;761456;182;918966;-75
2021/06/16 05:38:46;;;;;;;14.37;9.87;;;;;;;;;;761780;182;916616;-73
2021/06/16 05:41:12;;;;;;;15.70;10.30;;;;;;;;;;762801;182;921933;-75
2021/06/16 05:43:38;;;;;;;14.97;9.93;;;;;;;;;;762708;182;920631;-73
2021/06/16 05:46:04;;;;;;;11.80;8.03;;;;;;;;;;760743;182;920606;-72
2021/06/16 05:48:29;;;;;;;12.45;8.35;;;;;;;;;;759410;182;918717;-71
2021/06/16 05:50:55;;;;;;;12.50;8.60;;;;;;;;;;765989;183;919240;-73
2021/06/16 05:53:21;;;;;;;13.55;8.60;;;;;;;;;;755999;183;917967;-74
2021/06/16 05:55:47;;;;;;;14.83;8.90;;;;;;;;;;761059;182;917990;-74
2021/06/16 05:58:13;;;;;;;13.87;8.20;;;;;;;;;;766994;183;919280;-74
2021/06/16 06:00:39;;;;;;;18.43;9.20;;;;;;;;;;756852;183;917983;-75
2021/06/16 06:03:05;;;;;;;11.50;9.17;;;;;;;;;;754018;185;919140;-75
2021/06/16 06:05:30;;;;;;;13.45;8.93;;;;;;;;;;758121;184;917693;-75
2021/06/16 06:07:57;;;;;;;14.80;8.10;;;;;;;;;;746487;186;919136;-75
2021/06/16 06:10:22;;;;;;;13.27;8.83;;;;;;;;;;761013;183;913328;-74
2021/06/16 06:12:48;;;;;;;18.10;9.37;;;;;;;;;;761972;183;911509;-74
2021/06/16 06:15:15;;;;;;;13.20;8.47;;;;;;;;;;762756;184;909619;-74
2021/06/16 06:17:40;;;;;;;13.77;8.70;;;;;;;;;;759511;182;917431;-74
2021/06/16 06:20:06;;;;;;;15.00;9.67;;;;;;;;;;760217;182;912992;-74
2021/06/16 06:22:32;;;;;;;15.43;8.50;;;;;;;;;;768834;182;911548;-74
2021/06/16 06:24:57;;;;;;;12.87;8.70;;;;;;;;;;757479;184;918566;-75
2021/06/16 06:27:23;;;;;;;10.13;8.03;;;;;;;;;;756733;183;919886;-74
2021/06/16 06:29:49;;;;;;;11.10;7.20;;;;;;;;;;755441;185;918479;-73
2021/06/16 06:32:15;;;;;;;10.13;7.73;;;;;;;;;;745041;186;1020620;-73
2021/06/16 06:34:41;;;;;;;15.17;8.80;;;;;;;;;;757633;183;919557;-73
2021/06/16 06:37:07;;;;;;;9.37;6.50;;;;;;;;;;757702;184;919357;-74
2021/06/16 06:39:33;;;;;;;14.17;8.20;;;;;;;;;;761610;182;919392;-74
2021/06/16 06:41:58;;;;;;;17.20;9.40;;;;;;;;;;763838;182;919473;-75
2021/06/16 06:44:24;;;;;;;10.90;7.62;;;;;;;;;;760120;183;1020869;-75
2021/06/16 06:46:50;;;;;;;12.57;7.93;;;;;;;;;;767287;182;917929;-76
2021/06/16 06:49:16;;;;;;;13.07;9.10;;;;;;;;;;759812;183;919516;-73
2021/06/16 06:51:42;;;;;;;15.03;8.70;;;;;;;;;;762210;183;919367;-73
2021/06/16 06:54:08;;;;;;;14.10;8.67;;;;;;;;;;767753;183;919048;-75
2021/06/16 06:56:36;;;;;;;14.17;9.60;;;;;;;;;;761421;182;919312;-75
2021/06/16 06:59:02;;;;;;;14.50;9.60;;;;;;;;;;757659;182;919042;-75
2021/06/16 07:01:28;;;;;;;19.63;9.37;;;;;;;;;;757349;183;919145;-74
2021/06/16 07:03:53;;;;;;;15.53;9.17;;;;;;;;;;761582;183;918782;-72
2021/06/16 07:06:19;;;;;;;17.30;9.47;;;;;;;;;;759238;183;918639;-74
2021/06/16 07:08:45;;;;;;;16.87;9.70;;;;;;;;;;756376;183;918856;-74
2021/06/16 07:11:11;;;;;;;12.50;8.85;;;;;;;;;;755284;187;919010;-74
2021/06/16 07:13:37;;;;;;;12.00;8.40;;;;;;;;;;757901;183;919265;-74
2021/06/16 07:16:03;;;;;;;16.93;9.57;;;;;;;;;;757672;184;918447;-73
2021/06/16 07:18:29;;;;;;;18.43;9.30;;;;;;;;;;757715;184;920309;-73
2021/06/16 07:20:54;;;;;;;16.83;8.77;;;;;;;;;;750810;184;918655;-73
2021/06/16 07:23:20;;;;;;;12.03;8.90;;;;;;;;;;758390;183;919044;-74
2021/06/16 07:25:46;;;;;;;13.47;8.70;;;;;;;;;;757962;184;917243;-72
2021/06/16 07:28:12;;;;;;;14.10;9.10;;;;;;;;;;758949;183;918633;-72
2021/06/16 07:30:38;;;;;;;16.33;8.90;;;;;;;;;;755619;183;918925;-74
2021/06/16 07:33:04;;;;;;;15.57;9.10;;;;;;;;;;755749;184;917923;-74
2021/06/16 07:35:30;;;;;;;16.33;8.68;;;;;;;;;;751307;186;918627;-73
2021/06/16 07:37:55;;;;;;;15.50;9.00;;;;;;;;;;761476;183;916773;-72
2021/06/16 07:40:21;;;;;;;15.32;10.13;;;;;;;;;;757954;183;919585;-74
2021/06/16 07:42:47;;;;;;;19.13;8.70;;;;;;;;;;762615;184;918470;-73
2021/06/16 07:45:13;;;;;;;14.43;7.63;;;;;;;;;;757922;183;918968;-71
2021/06/16 07:47:39;;;;;;;17.63;7.40;;;;;;;;;;757378;182;922035;-72
2021/06/16 07:50:05;;;;;;;19.00;6.80;;;;;;;;;;765962;182;935929;-75
2021/06/16 07:52:31;;;;;;;10.97;7.30;;;;;;;;;;763230;182;918320;-73
2021/06/16 07:54:57;;;;;;;13.37;7.80;;;;;;;;;;754907;183;918355;-74
2021/06/16 07:57:23;;;;;;;11.43;6.23;;;;;;;;;;759828;183;918764;-74
2021/06/16 07:59:49;;;;;;;11.90;6.47;;;;;;;;;;763856;183;919480;-73
2021/06/16 08:02:14;;;;;;;10.70;6.80;;;;;;;;;;759992;182;920504;-73
2021/06/16 08:04:41;;;;;;;16.60;7.63;;;;;;;;;;759716;183;920884;-74
2021/06/16 08:07:10;;;;;;;9.23;6.83;;;;;;;;;;767151;182;914986;-70
2021/06/16 08:09:32;;;;;;;10.30;6.10;;;;;;;;;;758234;182;916048;-73
2021/06/16 08:11:58;;;;;;;10.10;5.93;;;;;;;;;;762949;182;919350;-75
2021/06/16 08:14:24;;;;;;;8.83;5.40;;;;;;;;;;762361;183;919746;-69
2021/06/16 08:16:49;;;;;;;9.80;5.87;;;;;;;;;;761674;183;919038;-71
2021/06/16 08:19:15;;;;;;;11.00;6.13;;;;;;;;;;756208;183;919465;-69
2021/06/16 08:21:42;;;;;;;6.80;5.57;;;;;;;;;;760717;183;919571;-70
2021/06/16 08:24:08;;;;;;;15.00;6.90;;;;;;;;;;760061;182;1123271;-70
2021/06/16 08:26:35;;;;;;;9.93;5.67;;;;;;;;;;759684;183;918926;-71
2021/06/16 08:28:59;;;;;;;12.40;7.60;;;;;;;;;;757134;183;918836;-70
2021/06/16 08:31:25;;;;;;;10.53;6.03;;;;;;;;;;765548;182;918854;-71
2021/06/16 08:33:51;;;;;;;14.43;6.57;;;;;;;;;;758381;182;919461;-67
2021/06/16 08:36:17;;;;;;;9.70;6.10;;;;;;;;;;761424;182;918600;-69
2021/06/16 08:38:43;;;;;;;11.87;6.37;;;;;;;;;;762465;183;919330;-70
2021/06/16 08:41:09;;;;;;;8.00;4.77;;;;;;;;;;757050;184;918710;-71
2021/06/16 08:43:35;;;;;;;8.73;5.30;;;;;;;;;;754204;184;932290;-70
2021/06/16 08:46:01;;;;;;;14.37;6.57;;;;;;;;;;767395;183;615652;-70
2021/06/16 08:48:27;;;;;;;13.10;5.40;;;;;;;;;;764096;182;919373;-68
2021/06/16 08:50:53;;;;;;;17.40;6.60;;;;;;;;;;759324;183;919370;-70
2021/06/16 08:53:18;;;;;;;11.63;6.70;;;;;;;;;;756598;182;919187;-71
2021/06/16 08:55:44;;;;;;;10.57;5.83;;;;;;;;;;766228;182;917992;-70
2021/06/16 08:58:10;;;;;;;9.20;5.67;;;;;;;;;;760295;182;919703;-68
2021/06/16 09:00:36;;;;;;;10.60;5.63;;;;;;;;;;759303;183;919534;-71
2021/06/16 09:03:03;;;;;;;10.37;7.20;;;;;;;;;;767362;181;918903;-71
2021/06/16 09:05:36;;;;;;;6.93;5.60;;;;;;;;;;763416;182;919138;-70
2021/06/16 09:08:02;;;;;;;11.90;5.67;;;;;;;;;;758325;183;918626;-68
2021/06/16 09:10:27;;;;;;;15.47;5.97;;;;;;;;;;752617;184;917020;-70
2021/06/16 09:12:55;;;;;;;21.03;6.00;;;;;;;;;;765561;183;993411;-71
2021/06/16 09:15:20;;;;;;;10.32;6.15;;;;;;;;;;761105;183;922197;-70
2021/06/16 09:17:51;;;;;;;9.30;5.83;;;;;;;;;;757206;182;920197;-68
2021/06/16 09:20:16;;;;;;;8.40;5.00;;;;;;;;;;766204;182;918424;-69
2021/06/16 09:22:42;;;;;;;13.33;6.53;;;;;;;;;;760189;182;918896;-71
2021/06/16 09:25:09;;;;;;;13.63;5.97;;;;;;;;;;762621;183;918295;-72
2021/06/16 09:27:37;;;;;;;13.97;6.40;;;;;;;;;;755263;183;919276;-69
2021/06/16 09:30:03;;;;;;;6.90;5.13;;;;;;;;;;763878;183;922570;-71
2021/06/16 09:32:35;;;;;;;9.30;6.37;;;;;;;;;;757600;182;918988;-69
2021/06/16 09:35:01;;;;;;;10.20;5.20;;;;;;;;;;759411;182;918982;-72
2021/06/16 09:37:27;;;;;;;26.77;6.60;;;;;;;;;;766075;182;919365;-72
2021/06/16 09:39:58;;;;;;;19.70;5.73;;;;;;;;;;761518;182;918488;-71
2021/06/16 09:42:24;;;;;;;8.27;5.97;;;;;;;;;;761308;182;918970;-72
2021/06/16 09:44:50;;;;;;;7.50;5.67;;;;;;;;;;759696;182;918732;-71
2021/06/16 09:47:20;;;;;;;12.93;5.67;;;;;;;;;;764352;183;942196;-71
2021/06/16 09:49:48;;;;;;;10.37;5.70;;;;;;;;;;752805;184;1028926;-71
2021/06/16 09:52:19;;;;;;;10.13;5.60;;;;;;;;;;755002;184;919179;-69
2021/06/16 09:54:45;;;;;;;11.25;5.75;;;;;;;;;;759484;183;1101409;-74
2021/06/16 09:57:11;;;;;;;8.30;5.40;;;;;;;;;;762554;183;918334;-70
2021/06/16 09:59:38;;;;;;;8.10;5.53;;;;;;;;;;759751;183;919411;-72
2021/06/16 10:02:03;;;;;;;8.67;6.00;;;;;;;;;;759089;183;919372;-72
2021/06/16 10:04:31;;;;;;;16.02;6.35;;;;;;;;;;765066;183;918852;-73
2021/06/16 10:07:12;;;;;;;9.37;5.70;;;;;;;;;;762969;182;624941;-71
2021/06/16 10:09:37;;;;;;;9.00;7.00;;;;;;;;;;757973;182;940620;-72
2021/06/16 10:12:03;;;;;;;8.47;5.83;;;;;;;;;;765419;182;919204;-69
2021/06/16 10:14:29;;;;;;;10.10;6.10;;;;;;;;;;766264;181;625591;-69
2021/06/16 10:16:55;;;;;;;10.87;7.00;;;;;;;;;;770451;182;633219;-72
2021/06/16 10:19:21;;;;;;;9.30;7.03;;;;;;;;;;762556;183;920280;-70
2021/06/16 10:21:47;;;;;;;10.40;6.20;;;;;;;;;;757421;183;919411;-71
2021/06/16 10:24:13;;;;;;;12.47;7.30;;;;;;;;;;761673;183;936806;-69
2021/06/16 10:26:38;;;;;;;11.93;7.50;;;;;;;;;;750729;183;1114270;-68
2021/06/16 10:29:04;;;;;;;12.20;8.07;;;;;;;;;;752621;184;919013;-71
2021/06/16 10:31:34;;;;;;;14.40;7.97;;;;;;;;;;750550;186;918795;-68
2021/06/16 10:34:00;;;;;;;10.87;6.97;;;;;;;;;;750331;183;920118;-69
2021/06/16 10:36:26;;;;;;;11.63;6.80;;;;;;;;;;756727;183;918484;-68
2021/06/16 10:39:11;;;;;;;16.87;9.40;;;;;;;;;;753439;184;919515;-68
2021/06/16 10:41:54;;;;;;;9.70;7.60;;;;;;;;;;758245;183;919270;-69
2021/06/16 10:44:20;;;;;;;11.70;8.75;;;;;;;;;;760920;183;921967;-71
2021/06/16 10:46:48;;;;;;;13.93;7.97;;;;;;;;;;765094;182;917808;-70
2021/06/16 10:49:14;;;;;;;10.80;8.33;;;;;;;;;;759898;182;919766;-69
2021/06/16 10:51:41;;;;;;;17.73;7.43;;;;;;;;;;759803;183;920055;-69
2021/06/16 10:54:10;;;;;;;12.93;7.70;;;;;;;;;;764599;183;918938;-68
2021/06/16 10:56:39;;;;;;;13.80;7.93;;;;;;;;;;764289;182;952011;-68
2021/06/16 10:59:05;;;;;;;18.20;9.23;;;;;;;;;;756752;182;921774;-68
2021/06/16 11:01:31;;;;;;;13.70;7.17;;;;;;;;;;759433;182;919504;-69
2021/06/16 11:04:04;;;;;;;11.23;8.40;;;;;;;;;;763543;182;1225335;-69
2021/06/16 11:06:38;;;;;;;16.30;9.07;;;;;;;;;;764866;183;919655;-69
2021/06/16 11:09:08;;;;;;;12.20;7.70;;;;;;;;;;757668;183;917459;-70
2021/06/16 11:11:39;;;;;;;12.87;6.93;;;;;;;;;;757487;183;919550;-69
2021/06/16 11:14:05;;;;;;;12.03;7.90;;;;;;;;;;760285;183;916270;-70
2021/06/16 11:16:39;;;;;;;13.63;8.30;;;;;;;;;;763267;183;913935;-70
2021/06/16 11:19:11;;;;;;;13.67;8.57;;;;;;;;;;759718;182;916996;-69
2021/06/16 11:21:37;;;;;;;17.30;9.40;;;;;;;;;;759315;182;916763;-67
2021/06/16 11:24:03;;;;;;;12.23;7.87;;;;;;;;;;760873;182;916371;-69
2021/06/16 11:26:35;;;;;;;10.80;7.53;;;;;;;;;;768809;182;915626;-71
2021/06/16 11:29:01;;;;;;;17.00;7.33;;;;;;;;;;754939;183;919629;-70
2021/06/16 11:31:26;;;;;;;15.20;8.47;;;;;;;;;;762509;183;919472;-69
2021/06/16 11:33:54;;;;;;;12.47;6.90;;;;;;;;;;761920;182;919858;-72
2021/06/16 11:36:19;;;;;;;10.67;8.20;;;;;;;;;;766172;182;918747;-69
2021/06/16 11:38:50;;;;;;;15.87;8.60;;;;;;;;;;760629;182;1021018;-70
2021/06/16 11:41:16;;;;;;;13.03;7.27;;;;;;;;;;762677;182;853334;-70
2021/06/16 11:43:42;;;;;;;10.53;6.57;;;;;;;;;;766310;182;918721;-71
2021/06/16 11:46:11;;;;;;;10.80;6.95;;;;;;;;;;759955;183;921560;-70
2021/06/16 11:48:37;;;;;;;12.20;6.90;;;;;;;;;;758534;183;922527;-72
2021/06/16 11:51:03;;;;;;;17.63;7.23;;;;;;;;;;766774;183;627906;-70
2021/06/16 11:53:30;;;;;;;15.93;8.60;;;;;;;;;;766545;183;617366;-71
2021/06/16 11:55:55;;;;;;;11.23;7.50;;;;;;;;;;761902;183;645221;-71
2021/06/16 11:58:24;;;;;;;8.37;7.27;;;;;;;;;;763650;182;626835;-73
2021/06/16 12:00:50;;;;;;;12.17;6.90;;;;;;;;;;769326;182;627835;-72
2021/06/16 12:03:16;;;;;;;9.50;7.43;;;;;;;;;;761337;183;624643;-70
2021/06/16 12:05:42;;;;;;;17.57;7.77;;;;;;;;;;763867;183;632463;-69
2021/06/16 12:08:07;;;;;;;10.53;7.23;;;;;;;;;;764134;182;633727;-72
2021/06/16 12:10:33;;;;;;;13.07;6.30;;;;;;;;;;768591;182;635504;-71
2021/06/16 12:13:00;;;;;;;9.90;7.23;;;;;;;;;;762640;182;629396;-73
2021/06/16 12:15:26;;;;;;;8.80;6.50;;;;;;;;;;763679;182;629243;-73
2021/06/16 12:17:54;;;;;;;8.73;7.10;;;;;;;;;;766430;182;699577;-71
2021/06/16 12:20:20;;;;;;;8.73;6.50;;;;;;;;;;759186;184;621576;-72
2021/06/16 12:22:46;;;;;;;10.97;7.77;;;;;;;;;;758127;184;630119;-71
2021/06/16 12:25:12;;;;;;;12.63;8.13;;;;;;;;;;760186;184;624536;-69
2021/06/16 12:27:38;;;;;;;10.33;7.63;;;;;;;;;;759950;184;623444;-70
2021/06/16 12:30:04;;;;;;;11.43;7.30;;;;;;;;;;758101;184;633155;-71
2021/06/16 12:32:34;;;;;;;11.70;7.53;;;;;;;;;;747340;186;630651;-72
2021/06/16 12:35:03;;;;;;;10.63;7.60;;;;;;;;;;767055;183;670030;-70
2021/06/16 12:37:28;;;;;;;8.73;7.37;;;;;;;;;;761171;183;627857;-71
2021/06/16 12:39:55;;;;;;;14.80;6.40;;;;;;;;;;766627;183;626833;-70
2021/06/16 12:42:21;;;;;;;12.73;7.20;;;;;;;;;;763576;183;641910;-72
2021/06/16 12:44:47;;;;;;;13.17;6.83;;;;;;;;;;766358;183;622658;-70
2021/06/16 12:47:18;;;;;;;9.47;6.87;;;;;;;;;;762586;182;631114;-71
2021/06/16 12:49:51;;;;;;;13.10;8.50;;;;;;;;;;764147;182;618880;-71
2021/06/16 12:52:22;;;;;;;15.50;8.40;;;;;;;;;;766840;182;636544;-70
2021/06/16 12:54:48;;;;;;;14.47;7.60;;;;;;;;;;769822;182;617267;-71
2021/06/16 12:57:15;;;;;;;14.70;8.57;;;;;;;;;;761192;183;621249;-73
2021/06/16 12:59:42;;;;;;;13.10;7.07;;;;;;;;;;764232;183;618823;-69
2021/06/16 13:02:07;;;;;;;10.30;7.10;;;;;;;;;;771237;182;624383;-69
2021/06/16 13:04:39;;;;;;;8.20;6.27;;;;;;;;;;768881;182;627111;-71
2021/06/16 13:07:05;;;;;;;10.00;7.23;;;;;;;;;;763926;182;674938;-70
2021/06/16 13:09:31;;;;;;;11.33;8.57;;;;;;;;;;762619;184;629160;-70
2021/06/16 13:11:56;;;;;;;8.93;6.50;;;;;;;;;;767627;182;629577;-72
2021/06/16 13:14:25;;;;;;;17.03;6.80;;;;;;;;;;763613;182;626278;-70
2021/06/16 13:16:54;;;;;;;9.87;7.00;;;;;;;;;;765214;183;624184;-71
2021/06/16 13:19:20;;;;;;;8.73;7.17;;;;;;;;;;765770;182;618270;-69
2021/06/16 13:22:04;;;;;;;11.10;7.23;;;;;;;;;;755516;185;618368;-70
2021/06/16 13:24:27;;;;;;;11.80;7.13;;;;;;;;;;764062;183;638749;-69
2021/06/16 13:26:57;;;;;;;9.23;7.10;;;;;;;;;;762352;183;918416;-71
2021/06/16 13:29:23;;;;;;;10.30;6.10;;;;;;;;;;764973;182;623548;-70
2021/06/16 13:31:49;;;;;;;9.33;6.87;;;;;;;;;;769421;184;613700;-71
2021/06/16 13:34:16;;;;;;;8.40;5.33;;;;;;;;;;767314;183;626875;-71
2021/06/16 13:36:40;;;;;;;14.47;5.37;;;;;;;;;;765983;182;630960;-72
2021/06/16 13:39:06;;;;;;;7.80;5.80;;;;;;;;;;763771;183;691959;-71
2021/06/16 13:41:33;;;;;;;7.60;4.70;;;;;;;;;;759317;183;651311;-70
2021/06/16 13:43:58;;;;;;;7.60;5.20;;;;;;;;;;765288;183;633568;-72
2021/06/16 13:46:24;;;;;;;6.77;5.00;;;;;;;;;;764823;183;628495;-72
2021/06/16 13:48:50;;;;;;;5.67;4.63;;;;;;;;;;766433;182;618137;-72
2021/06/16 13:51:15;;;;;;;11.40;4.97;;;;;;;;;;765991;182;623502;-72
2021/06/16 13:53:41;;;;;;;8.00;4.43;;;;;;;;;;767807;182;637385;-72
2021/06/16 13:56:07;;;;;;;9.80;5.50;;;;;;;;;;771928;182;618614;-71
2021/06/16 13:58:34;;;;;;;13.00;5.20;;;;;;;;;;768592;182;623048;-72
2021/06/16 14:00:59;;;;;;;6.60;4.90;;;;;;;;;;765832;183;1136433;-72
2021/06/16 14:03:27;;;;;;;7.40;4.40;;;;;;;;;;764641;183;919826;-71
2021/06/16 14:05:50;;;;;;;18.90;6.57;;;;;;;;;;764510;182;622037;-72
2021/06/16 14:08:16;;;;;;;7.67;5.07;;;;;;;;;;763206;182;640844;-73
2021/06/16 14:10:42;;;;;;;8.93;5.53;;;;;;;;;;765546;182;619152;-71
2021/06/16 14:13:08;;;;;;;7.70;4.80;;;;;;;;;;760428;183;632322;-71